Charleston, SC (29413)

2:39 PM EST on January 26, 2015 (GMT -0500)
1 Cordes Street Charleston SC | Change Station
CLOSE
Current Station
Personal Weather Station
Location: Charleston, SC
Elevation: 0 ft
Nearby Weather Stations

Elev 0 ft 32.78 °N, 79.93 °W | Updated 57 seconds ago

Mostly Cloudy
Mostly Cloudy
57.5 °F
Feels Like 57.5 °F
N
11.0
Wind Variable Wind from West
Gusts 15.0 mph

Today
High -- | Low -- °F
--% Chance of Precip.
Yesterday
High -- | Low -- °F
Precip. -- in
7:18 AM 5:46 PM
Waxing Crescent, 46% visible
Pressure 29.64 in
Visibility 10.0 miles
Clouds Scattered Clouds 4100 ft
Mostly Cloudy 4800 ft
Mostly Cloudy 5000 ft
Dew Point 43 °F
Humidity 59%
Rainfall 0.00 in
Snow Depth Not available.
UV 2 out of 12
Pollen 4.40 out of 12
Air Quality Not available.
Flu Activity Not available.
METAR KJZI 261935Z AUTO 26012G20KT 10SM SCT041 BKN048 BKN050 13/04 A2964 RMK A02 P000

More Conditions Fewer Conditions

Pressure 29.64 in
Visibility 10.0 miles
Clouds Scattered Clouds 4100 ft
Mostly Cloudy 4800 ft
Mostly Cloudy 5000 ft
Dew Point 43 °F
Humidity 59%
Rainfall 0.00 in
Snow Depth Not available.
UV 2 out of 12
Pollen 4.40 out of 12
Air Quality Not available.
Flu Activity Not available.
METAR KJZI 261935Z AUTO 26012G20KT 10SM SCT041 BKN048 BKN050 13/04 A2964 RMK A02 P000

More Conditions Fewer Conditions

10-Day Weather Forecast

Almanac

Astronomy

Jan. 26, 2015 Rise Set
Actual Time
Civil Twilight
Nautical Twilight
Astronomical Twilight
Moon
Length of Visible Light
Length of Day
Tomorrow will be .
, % of the Moon is Illuminated

Today's Extremes

State Highs State Lows

Community

WunderPhotos

Upload Photos

1,790,338 photos uploaded!

WunderBlogs® & News

Nearby

Air Quality

  Air Quality AQ Index Pollutant
Not available.

Snow Depth

Station Depth Elevation

Earthquake Activity

City Distance Mag. Time & Date
Minimum magnitude displayed is 2.5.

Coastal Water Temperatures

Place Temperature

Nearby Weather Stations